Friday, April 18, 2014
20:46 UTC
  |  Log In   |  Register Free
Airport Search:

Lewis University Airport
(KLOT)

Lewis University Airport Diagram
No Airport Diagram Available

FAA data valid effective April 3, 2014 until May 29, 2014 (unless otherwise noted).

 
 
 
 
 
 
 
 
 
 
 
 
 
 

Current Aviation Weather for Lewis University Airport (KLOT)

The most recent METAR observation for KLOT was updated at: 1935 UTC
METAR Summary (Translated METAR)
KLOT
181935Z AUTO 32003KT 10SM CLR 15/01 A3031 RMK AO2 T01470010 TSNO
KJOT
(6.4 nm SW from KLOT)
181935Z AUTO 04006KT 10SM CLR 15/02 A3031 RMK AO2 T01540018
TAF Summary (Translated TAF)
KMDW
(18.8 nm NE from KLOT)
181957Z 1820/1918 06011KT P6SM FEW250 FM190300 09008KT P6SM FEW200 FM191500 11010KT P6SM SKC
  Airport Weather Conditions for KLOT

 Current Weather at LOT
58° F
Fair
Northwest winds at 3.5 mph
LOT NOAA Radar

Pressure: 30.31 in
Humidity: 40%
Wind: Northwest at 3.5 MPH (3 KT)
Dew Point: 33.8°F
Visibility: 10.00 mi


Airport Weather Forecast for KLOT

Translated METAR and TAF for KLOT
Translated METAR for KLOT (2046 UTC 18 April 2014)
found at http://aviationweather.gov/adds/metars/
 
METAR text: KLOT 182035Z AUTO 08011G14KT 10SM CLR 15/02 A3029 RMK AO2 T01450024 TSNO
Conditions at: KLOT (ROMEOVILLE/CHI , IL, US) observed 2035 UTC 18 April 2014
Temperature: 14.5°C (58°F)
Dewpoint: 2.4°C (36°F) [RH = 44%]
Pressure (altimeter): 30.29 inches Hg (1025.8 mb)
Winds: from the E (80 degrees) at 13 MPH (11 knots; 5.7 m/s)
gusting to 16 MPH (14 knots; 7.3 m/s)
Visibility: 10 or more miles (16+ km)
Ceiling: at least 12,000 feet AGL
Clouds: sky clear below 12,000 feet AGL
Weather: automated observation with no human augmentation;
there may or may not be significant weather present at this time
Translated TAF for KLOT

There is no translated TAF available for this airport

Find All Airport Services Find A Hotel Find A Rental Car Find A Golf Course Find A Restaurant $100 Hamburger



FBO's on the Field
FBO Company Facility Photos Services Transportation Aviation Fuel Prices: Prices include tax
Catering Weather Repair Courtesy Rental Type 100LL JetA JetA+ MOGAS 8087
 
Lewis University Airport

This FBO has not yet been rated
FS:Phillips66
Last Updated: Mar-19
Login to update fuel prices
SS:
Contact Lewis University AirportMore FBO Information
 
Add another FBO Facility Photos Catering Weather Repair Courtesy Rental Type 100LL JetA JetA+ MOGAS 8087
Services Transportation Aviation Fuel Prices: Prices include tax


GlobalAir.com Airport Resource Center model-print
model-print
model-print
model-print